»·PEaware :: N75232 KLAS-KLAX

N75232 :: KLAS-KLAX

FLIGHT INFORMATION

Flight Status: Arrived
Operator: Privately registered:
United States
More flights under this callsign
Pilot: Daniel B. (28719)
Aircraft: CESSNA 172 SKYHAWK
(C172)
More flights by this aircraft type
Origin: KLAS McCarran Intl
United States
Destination: KLAX Los Angeles Intl
United States
More flights between these airports :: More routes between these airports
Route: +LAS V538 GFS V210 HEC PMD KIMMO3
File this flight plan on PilotEdge
Remarks:
Altitude:
(Current/Filed)
12,000ft
Speed:
(Current/Filed)
115kts
Departed: 20-Jul-20 05:06 PM
Arrived: 20-Jul-20 08:04 PM
Distance/Time
Traveled:
205nm/2:58
Distance/Time
To Go:
Arrived

Flight Plot

Page will automatically refresh every two minutes.

Flight plan parsing failed; only flown route is shown


Map Options




Map Legend


Flown Route
Filed Route
Departure Airport
Arrival Airport
Navaid (VOR, NDB)
Fix

Horizontal Profiles

Position Reports

Time Latitude Longitude Heading Altitude Ground
Speed
20-Jul-20 16:28 36.099612 -115.160391 38 2096ft 0kts
20-Jul-20 16:29 36.099612 -115.160391 38 2096ft 0kts
20-Jul-20 16:30 36.099612 -115.160391 38 2096ft 0kts
20-Jul-20 16:31 36.099612 -115.160391 38 2096ft 0kts
20-Jul-20 16:32 36.099612 -115.160391 38 2096ft 0kts
20-Jul-20 16:33 36.099643 -115.160360 39 2096ft 0kts
20-Jul-20 16:34 36.099643 -115.160360 39 2096ft 0kts
20-Jul-20 16:35 36.099643 -115.160360 39 2096ft 0kts
20-Jul-20 16:36 36.099643 -115.160360 39 2096ft 0kts
20-Jul-20 16:37 36.099643 -115.160360 39 2096ft 0kts
20-Jul-20 16:38 36.099643 -115.160360 39 2096ft 0kts
20-Jul-20 16:39 36.099643 -115.160360 39 2096ft 0kts
20-Jul-20 16:40 36.099643 -115.160360 39 2096ft 0kts
20-Jul-20 16:41 36.099648 -115.160355 39 2096ft 0kts
20-Jul-20 16:42 36.099648 -115.160355 39 2096ft 0kts
20-Jul-20 16:43 36.099648 -115.160355 39 2096ft 0kts
20-Jul-20 16:44 36.099648 -115.160355 39 2096ft 0kts
20-Jul-20 16:45 36.099648 -115.160355 39 2096ft 0kts
20-Jul-20 16:46 36.099648 -115.160355 39 2096ft 0kts
20-Jul-20 16:47 36.099648 -115.160355 39 2096ft 0kts
20-Jul-20 16:48 36.099648 -115.160355 39 2096ft 0kts
20-Jul-20 16:49 36.099648 -115.160355 39 2096ft 0kts
20-Jul-20 16:50 36.099648 -115.160355 39 2096ft 0kts
20-Jul-20 16:51 36.099648 -115.160355 39 2096ft 0kts
20-Jul-20 16:52 36.099648 -115.160355 39 2096ft 0kts
20-Jul-20 16:53 36.099392 -115.160351 175 2096ft 4kts
20-Jul-20 16:54 36.099138 -115.159512 23 2093ft 10kts
20-Jul-20 16:55 36.098870 -115.159268 209 2093ft 9kts
20-Jul-20 16:56 36.096094 -115.160886 205 2102ft 13kts
20-Jul-20 16:57 36.092787 -115.162772 204 2117ft 12kts
20-Jul-20 16:58 36.089682 -115.164557 203 2132ft 10kts
20-Jul-20 16:59 36.087163 -115.165992 203 2143ft 9kts
20-Jul-20 17:00 36.084728 -115.167380 204 2153ft 8kts
20-Jul-20 17:01 36.082353 -115.168740 204 2162ft 9kts
20-Jul-20 17:02 36.079421 -115.170417 204 2172ft 10kts
20-Jul-20 17:03 36.078288 -115.170579 119 2177ft 0kts
20-Jul-20 17:04 36.078077 -115.169963 105 2176ft 0kts
20-Jul-20 17:05 36.080724 -115.167296 27 2160ft 67kts
20-Jul-20 17:06 36.094004 -115.175929 253 2810ft 84kts
20-Jul-20 17:07 36.089218 -115.208059 251 3620ft 86kts
20-Jul-20 17:08 36.083965 -115.241975 245 4502ft 77kts
20-Jul-20 17:09 36.078969 -115.274459 248 5375ft 67kts
20-Jul-20 17:10 36.076002 -115.297712 259 5978ft 71kts
20-Jul-20 17:11 36.073156 -115.320663 248 6594ft 66kts
20-Jul-20 17:12 36.069439 -115.342865 252 7171ft 66kts
20-Jul-20 17:13 36.065746 -115.364501 254 7719ft 64kts
20-Jul-20 17:14 36.060832 -115.384724 245 8205ft 59kts
20-Jul-20 17:15 36.056398 -115.405179 251 8679ft 61kts
20-Jul-20 17:16 36.052054 -115.425443 253 9117ft 62kts
20-Jul-20 17:17 36.047158 -115.445034 254 9490ft 59kts
20-Jul-20 17:18 36.041518 -115.462201 200 9723ft 55kts
20-Jul-20 17:19 36.026851 -115.458243 156 9871ft 61kts
20-Jul-20 17:20 36.011027 -115.453098 172 10002ft 65kts
20-Jul-20 17:21 35.990931 -115.446675 171 10067ft 90kts
20-Jul-20 17:22 35.964017 -115.439659 172 10211ft 84kts
20-Jul-20 17:23 35.936384 -115.432302 171 10020ft 103kts
20-Jul-20 17:24 35.909959 -115.422153 165 10014ft 102kts
20-Jul-20 17:26 35.883719 -115.411064 164 10008ft 98kts
20-Jul-20 17:27 35.858386 -115.404805 177 9997ft 89kts
20-Jul-20 17:28 35.835493 -115.399846 172 9999ft 75kts
20-Jul-20 17:29 35.815320 -115.394005 167 10040ft 97kts
20-Jul-20 17:30 35.785613 -115.384432 167 10064ft 117kts
20-Jul-20 17:31 35.754081 -115.373623 169 10060ft 118kts
20-Jul-20 17:32 35.736932 -115.368486 168 10047ft 118kts
20-Jul-20 17:33 35.706063 -115.359168 169 10080ft 110kts
20-Jul-20 17:34 35.676048 -115.349303 168 10074ft 113kts
20-Jul-20 17:35 35.645566 -115.340292 171 10066ft 113kts
20-Jul-20 17:36 35.619376 -115.331451 166 10670ft 80kts
20-Jul-20 17:37 35.600884 -115.321218 167 11088ft 65kts
20-Jul-20 17:38 35.584188 -115.314440 163 11320ft 62kts
20-Jul-20 17:39 35.568071 -115.306193 154 11510ft 60kts
20-Jul-20 17:40 35.543031 -115.300365 180 10972ft 119kts
20-Jul-20 17:41 35.510596 -115.293046 167 10240ft 122kts
20-Jul-20 17:42 35.480037 -115.281339 167 10072ft 111kts
20-Jul-20 17:42 35.453900 -115.273858 168 10011ft 113kts
20-Jul-20 17:43 35.424007 -115.268333 178 10092ft 110kts
20-Jul-20 17:45 35.387537 -115.258094 168 10046ft 115kts
20-Jul-20 17:45 35.361783 -115.251309 170 10101ft 110kts
20-Jul-20 17:46 35.331071 -115.242715 164 10093ft 114kts
20-Jul-20 17:47 35.300126 -115.232874 168 10063ft 116kts
20-Jul-20 17:48 35.269111 -115.222071 166 10055ft 116kts
20-Jul-20 17:49 35.238007 -115.213359 170 10077ft 114kts
20-Jul-20 17:50 35.207326 -115.202580 164 10079ft 115kts
20-Jul-20 17:51 35.176699 -115.190557 166 10079ft 115kts
20-Jul-20 17:52 35.146017 -115.179919 188 10075ft 114kts
20-Jul-20 17:53 35.125166 -115.206903 243 10065ft 111kts
20-Jul-20 17:54 35.116162 -115.242953 254 10076ft 110kts
20-Jul-20 17:55 35.107838 -115.278977 252 10085ft 111kts
20-Jul-20 17:56 35.097807 -115.314987 251 10083ft 111kts
20-Jul-20 17:57 35.088261 -115.351058 250 10073ft 112kts
20-Jul-20 17:58 35.079037 -115.387143 254 10068ft 112kts
20-Jul-20 17:59 35.070027 -115.423494 254 10069ft 112kts
20-Jul-20 18:00 35.060796 -115.459961 253 10047ft 113kts
20-Jul-20 18:01 35.051481 -115.496414 254 10065ft 110kts
20-Jul-20 18:02 35.043462 -115.532608 250 10041ft 113kts
20-Jul-20 18:03 35.033727 -115.566875 250 10044ft 112kts
20-Jul-20 18:04 35.025876 -115.596790 254 9989ft 114kts
20-Jul-20 18:05 35.016757 -115.633733 251 9958ft 114kts
20-Jul-20 18:06 35.007754 -115.669659 250 10018ft 110kts
20-Jul-20 18:07 34.997923 -115.705329 253 10020ft 111kts
20-Jul-20 18:08 34.989162 -115.741431 247 10027ft 111kts
20-Jul-20 18:09 34.978993 -115.777017 248 10041ft 111kts
20-Jul-20 18:10 34.969171 -115.813534 253 10000ft 113kts
20-Jul-20 18:11 34.960429 -115.850441 253 9971ft 113kts
20-Jul-20 18:12 34.951339 -115.886886 252 9986ft 111kts
20-Jul-20 18:13 34.942180 -115.922301 251 10018ft 111kts
20-Jul-20 18:14 34.932361 -115.958220 253 10007ft 112kts
20-Jul-20 18:15 34.923046 -115.994373 252 10014ft 111kts
20-Jul-20 18:16 34.913275 -116.030460 252 10013ft 111kts
20-Jul-20 18:17 34.903982 -116.066628 248 10003ft 112kts
20-Jul-20 18:18 34.893533 -116.102457 251 10012ft 111kts
20-Jul-20 18:19 34.884800 -116.138697 249 10003ft 112kts
20-Jul-20 18:20 34.875067 -116.174623 253 10022ft 111kts
20-Jul-20 18:21 34.866569 -116.211204 250 10025ft 111kts
20-Jul-20 18:22 34.856749 -116.247394 248 10000ft 112kts
20-Jul-20 18:23 34.846998 -116.283649 252 9991ft 112kts
20-Jul-20 18:24 34.837444 -116.319835 252 9993ft 112kts
20-Jul-20 18:25 34.828390 -116.356183 253 9984ft 112kts
20-Jul-20 18:26 34.817336 -116.391709 246 9989ft 111kts
20-Jul-20 18:27 34.805929 -116.426216 252 10030ft 110kts
20-Jul-20 18:28 34.798031 -116.462600 263 10021ft 112kts
20-Jul-20 18:29 34.794954 -116.500419 263 10008ft 112kts
20-Jul-20 18:30 34.791788 -116.538157 266 10009ft 112kts
20-Jul-20 18:31 34.788902 -116.576242 265 9998ft 113kts
20-Jul-20 18:32 34.785412 -116.614330 262 9978ft 112kts
20-Jul-20 18:33 34.780608 -116.651817 259 9986ft 112kts
20-Jul-20 18:34 34.777259 -116.689414 263 10003ft 111kts
20-Jul-20 18:35 34.773889 -116.727026 263 10014ft 112kts
20-Jul-20 18:36 34.769945 -116.764417 267 10023ft 112kts
20-Jul-20 18:37 34.768180 -116.787425 252 10047ft 110kts
20-Jul-20 18:38 34.763273 -116.824792 261 10042ft 112kts
20-Jul-20 18:39 34.759616 -116.863267 262 9984ft 115kts
20-Jul-20 18:40 34.756301 -116.901157 264 10017ft 111kts
20-Jul-20 18:41 34.752501 -116.938690 263 10036ft 111kts
20-Jul-20 18:42 34.748231 -116.976081 260 10049ft 111kts
20-Jul-20 18:43 34.744227 -117.013858 262 10039ft 113kts
20-Jul-20 18:44 34.740888 -117.051845 264 10041ft 112kts
20-Jul-20 18:45 34.737544 -117.089739 263 10040ft 113kts
20-Jul-20 18:46 34.734257 -117.127657 257 10038ft 112kts
20-Jul-20 18:47 34.727862 -117.164911 258 10038ft 112kts
20-Jul-20 18:48 34.723334 -117.202567 267 10038ft 112kts
20-Jul-20 18:49 34.720731 -117.240535 264 10038ft 112kts
20-Jul-20 18:50 34.717596 -117.278509 267 10031ft 113kts
20-Jul-20 18:51 34.714112 -117.316344 264 10035ft 112kts
20-Jul-20 18:52 34.710053 -117.354125 267 10027ft 113kts
20-Jul-20 18:53 34.706945 -117.391962 262 10028ft 112kts
20-Jul-20 18:54 34.702575 -117.429686 264 10031ft 112kts
20-Jul-20 18:55 34.698894 -117.467470 259 10028ft 112kts
20-Jul-20 18:56 34.694469 -117.505081 263 10029ft 112kts
20-Jul-20 18:57 34.689112 -117.542609 259 10031ft 112kts
20-Jul-20 18:58 34.684881 -117.580297 262 10033ft 112kts
20-Jul-20 18:59 34.681450 -117.618084 266 10036ft 112kts
20-Jul-20 19:00 34.677047 -117.655784 260 10035ft 112kts
20-Jul-20 19:01 34.672775 -117.693827 261 10012ft 114kts
20-Jul-20 19:02 34.668621 -117.731547 262 10031ft 112kts
20-Jul-20 19:03 34.665397 -117.769350 259 10036ft 112kts
20-Jul-20 19:04 34.661050 -117.807025 262 10047ft 112kts
20-Jul-20 19:05 34.657762 -117.844908 262 10039ft 113kts
20-Jul-20 19:06 34.653590 -117.883158 260 10025ft 113kts
20-Jul-20 19:07 34.648964 -117.921050 263 10022ft 113kts
20-Jul-20 19:08 34.645176 -117.959026 259 10017ft 112kts
20-Jul-20 19:09 34.641443 -117.997081 266 10008ft 113kts
20-Jul-20 19:10 34.637355 -118.034869 264 10007ft 113kts
20-Jul-20 19:11 34.627854 -118.069475 231 9989ft 113kts
20-Jul-20 19:12 34.609424 -118.099994 236 10032ft 111kts
20-Jul-20 19:13 34.591929 -118.131087 235 10046ft 111kts
20-Jul-20 19:14 34.572804 -118.162133 230 9789ft 122kts
20-Jul-20 19:15 34.551571 -118.193956 236 9375ft 121kts
20-Jul-20 19:16 34.529917 -118.225293 228 8737ft 125kts
20-Jul-20 19:17 34.508681 -118.257164 232 8044ft 118kts
20-Jul-20 19:18 34.490271 -118.286404 241 7970ft 104kts
20-Jul-20 19:20 34.479195 -118.311157 231 7985ft 108kts
20-Jul-20 19:21 34.460364 -118.340135 233 8013ft 112kts
20-Jul-20 19:22 34.441673 -118.370498 233 8024ft 111kts
20-Jul-20 19:23 34.426644 -118.395023 232 8021ft 112kts
20-Jul-20 19:24 34.399039 -118.406632 178 7988ft 115kts
20-Jul-20 19:25 34.368451 -118.393754 163 8005ft 116kts
20-Jul-20 19:26 34.339277 -118.375903 157 8005ft 118kts
20-Jul-20 19:27 34.309613 -118.359550 159 8029ft 117kts
20-Jul-20 19:28 34.279970 -118.343543 158 7927ft 126kts
20-Jul-20 19:29 34.247424 -118.325064 158 7299ft 130kts
20-Jul-20 19:30 34.220000 -118.306951 154 6980ft 120kts
20-Jul-20 19:31 34.194967 -118.294074 161 7004ft 115kts
20-Jul-20 19:32 34.170945 -118.280365 160 6956ft 120kts
20-Jul-20 19:33 34.150717 -118.262199 133 6677ft 122kts
20-Jul-20 19:34 34.134357 -118.239572 134 6037ft 123kts
20-Jul-20 19:35 34.118636 -118.218780 135 5407ft 123kts
20-Jul-20 19:35 34.106454 -118.202269 133 5069ft 113kts
20-Jul-20 19:37 34.091785 -118.180261 136 4960ft 100kts
20-Jul-20 19:38 34.078994 -118.161603 134 4813ft 111kts
20-Jul-20 19:38 34.067294 -118.145011 132 4460ft 118kts
20-Jul-20 19:39 34.053805 -118.124813 131 4037ft 109kts
20-Jul-20 19:41 34.039207 -118.103257 132 3994ft 90kts
20-Jul-20 19:41 34.026598 -118.091905 161 3750ft 115kts
20-Jul-20 19:42 34.007945 -118.083334 186 3607ft 99kts
20-Jul-20 19:43 33.991657 -118.087375 207 3611ft 87kts
20-Jul-20 19:44 33.983498 -118.101011 245 3621ft 81kts
20-Jul-20 19:45 33.977702 -118.115643 246 3605ft 86kts
20-Jul-20 19:46 33.971742 -118.130748 243 3604ft 88kts
20-Jul-20 19:47 33.965634 -118.145574 245 3623ft 86kts
20-Jul-20 19:48 33.960959 -118.160079 264 3627ft 86kts
20-Jul-20 19:49 33.959557 -118.175147 265 3564ft 89kts
20-Jul-20 19:50 33.958484 -118.190898 257 3349ft 90kts
20-Jul-20 19:51 33.955079 -118.206097 259 3120ft 91kts
20-Jul-20 19:52 33.953727 -118.222930 266 2826ft 93kts
20-Jul-20 19:53 33.952649 -118.238873 263 2576ft 88kts
20-Jul-20 19:54 33.951032 -118.252941 262 2318ft 88kts
20-Jul-20 19:55 33.949729 -118.266590 264 2084ft 87kts
20-Jul-20 19:56 33.948825 -118.275491 261 1929ft 86kts
20-Jul-20 19:57 33.946701 -118.295308 262 1597ft 84kts
20-Jul-20 19:58 33.945111 -118.310336 261 1337ft 84kts
20-Jul-20 19:59 33.943609 -118.326078 263 1070ft 84kts
20-Jul-20 20:00 33.941995 -118.342265 265 804ft 83kts
20-Jul-20 20:01 33.939848 -118.358881 264 551ft 82kts
20-Jul-20 20:02 33.938165 -118.376262 263 322ft 62kts
20-Jul-20 20:03 33.936929 -118.386854 260 107ft 39kts
20-Jul-20 20:04 33.935804 -118.390887 168 102ft 9kts
20-Jul-20 20:05 33.935736 -118.390872 169 102ft 0kts
20-Jul-20 20:06 33.935446 -118.391034 232 102ft 12kts
20-Jul-20 20:07 33.934088 -118.391589 181 102ft 13kts
20-Jul-20 20:08 33.933573 -118.391589 179 102ft 0kts
20-Jul-20 20:09 33.933573 -118.391589 179 102ft 0kts

Navigation Log

Ident Type
Flight plan parsing failed, navigation log unavailable